createdAt,value
2023-04-04T00:00:17.038Z,54.84
2023-04-04T00:02:43.547Z,54.99
2023-04-04T00:05:10.085Z,54.77
2023-04-04T00:07:36.761Z,55.09
2023-04-04T00:10:03.519Z,55.90
2023-04-04T00:12:30.175Z,54.92
2023-04-04T00:14:57.496Z,55.48
2023-04-04T00:17:24.013Z,54.84
2023-04-04T00:19:50.585Z,54.95
2023-04-04T00:22:18.141Z,56.19
2023-04-04T00:24:44.547Z,54.49
2023-04-04T00:27:11.246Z,55.56
2023-04-04T00:29:37.974Z,53.94
2023-04-04T00:32:04.499Z,55.27
2023-04-04T00:34:31.200Z,55.29
2023-04-04T00:36:58.714Z,55.17
2023-04-04T00:39:26.551Z,54.84
2023-04-04T00:41:53.175Z,55.56
2023-04-04T00:44:19.913Z,56.06
2023-04-04T00:46:46.504Z,55.24
2023-04-04T00:49:12.898Z,54.80
2023-04-04T00:51:39.363Z,55.28
2023-04-04T00:54:06.000Z,55.42
2023-04-04T00:56:33.128Z,56.17
2023-04-04T00:59:00.949Z,56.65
2023-04-04T01:01:27.576Z,56.66
2023-04-04T01:03:54.639Z,57.33
2023-04-04T01:06:21.217Z,57.37
2023-04-04T01:08:49.029Z,58.19
2023-04-04T01:11:16.609Z,56.77
2023-04-04T01:13:44.038Z,56.97
2023-04-04T01:16:10.461Z,57.14
2023-04-04T01:18:38.998Z,57.68
2023-04-04T01:21:12.364Z,57.59
2023-04-04T01:23:56.529Z,58.31
2023-04-04T01:26:23.691Z,57.47
2023-04-04T01:28:50.341Z,56.54
2023-04-04T01:31:22.008Z,57.65
2023-04-04T01:34:03.393Z,57.35
2023-04-04T01:36:36.324Z,56.71
2023-04-04T01:39:15.186Z,57.92
2023-04-04T01:41:42.263Z,57.89
2023-04-04T01:44:10.052Z,57.95
2023-04-04T01:46:37.069Z,57.04
2023-04-04T01:49:03.514Z,57.85
2023-04-04T01:51:31.165Z,57.09
2023-04-04T01:53:57.659Z,57.65
2023-04-04T01:56:24.720Z,58.34
2023-04-04T01:58:52.231Z,59.44
2023-04-04T02:01:18.732Z,58.16
2023-04-04T02:03:45.336Z,57.93
2023-04-04T02:06:11.895Z,59.21
2023-04-04T02:08:38.961Z,58.55
2023-04-04T02:11:05.574Z,58.89
2023-04-04T02:13:32.374Z,57.95
2023-04-04T02:15:58.924Z,58.24
2023-04-04T02:18:25.999Z,59.03
2023-04-04T02:20:57.410Z,59.89
2023-04-04T02:23:23.819Z,58.17
2023-04-04T02:25:51.213Z,58.47
2023-04-04T02:28:17.680Z,59.14
2023-04-04T02:30:44.203Z,58.61
2023-04-04T02:33:10.765Z,58.20
2023-04-04T02:35:37.176Z,58.46
2023-04-04T02:38:03.625Z,59.77
2023-04-04T02:40:30.352Z,61.43
2023-04-04T02:42:56.894Z,60.66
2023-04-04T02:45:23.298Z,61.82
2023-04-04T02:47:50.704Z,63.19
2023-04-04T02:50:17.427Z,63.02
2023-04-04T02:52:43.830Z,62.01
2023-04-04T02:55:10.623Z,62.14
2023-04-04T02:57:37.237Z,62.07
2023-04-04T03:00:04.412Z,63.15
2023-04-04T03:02:31.238Z,64.01
2023-04-04T03:04:57.743Z,65.49
2023-04-04T03:07:24.127Z,64.26
2023-04-04T03:09:50.901Z,65.38
2023-04-04T03:12:20.555Z,65.98
2023-04-04T03:14:47.413Z,66.76
2023-04-04T03:17:14.949Z,67.24
2023-04-04T03:19:41.914Z,67.42
2023-04-04T03:22:08.305Z,66.83
2023-04-04T03:24:35.725Z,67.15
2023-04-04T03:27:02.544Z,67.11
2023-04-04T03:29:29.112Z,68.21
2023-04-04T03:31:55.745Z,67.47
2023-04-04T03:34:23.232Z,67.77
2023-04-04T03:36:49.629Z,70.92
2023-04-04T03:39:16.066Z,72.54
2023-04-04T03:41:42.535Z,72.89
2023-04-04T03:44:08.934Z,73.46
2023-04-04T03:46:35.967Z,72.96
2023-04-04T03:49:02.506Z,72.92
2023-04-04T03:51:29.991Z,72.58
2023-04-04T03:53:56.529Z,73.24
2023-04-04T03:56:22.967Z,73.59
2023-04-04T03:58:49.522Z,75.29
2023-04-04T04:01:16.071Z,77.51
2023-04-04T04:03:42.503Z,77.61
2023-04-04T04:06:08.940Z,77.09
2023-04-04T04:08:35.350Z,77.41
2023-04-04T04:11:09.091Z,79.68
2023-04-04T04:13:38.935Z,79.22
2023-04-04T04:16:05.774Z,78.73
2023-04-04T04:18:33.637Z,79.67
2023-04-04T04:21:02.478Z,80.15
2023-04-04T04:23:28.945Z,81.38
2023-04-04T04:25:55.476Z,80.80
2023-04-04T04:28:24.602Z,83.39
2023-04-04T04:31:08.236Z,83.90
2023-04-04T04:33:36.257Z,82.99
2023-04-04T04:36:04.021Z,81.33
2023-04-04T04:38:30.953Z,80.82
2023-04-04T04:40:58.705Z,82.36
2023-04-04T04:43:25.201Z,81.44
2023-04-04T04:45:52.713Z,81.20
2023-04-04T04:48:20.279Z,81.75
2023-04-04T04:50:48.598Z,83.64
2023-04-04T04:53:16.029Z,83.37
2023-04-04T04:55:43.801Z,83.03
2023-04-04T04:58:11.055Z,82.95
2023-04-04T05:00:39.414Z,82.38
2023-04-04T05:03:09.221Z,83.23
2023-04-04T05:05:36.316Z,82.33
2023-04-04T05:08:03.423Z,81.17
2023-04-04T05:10:33.048Z,82.61
2023-04-04T05:12:59.920Z,83.06
2023-04-04T05:15:29.180Z,79.06
2023-04-04T05:17:55.830Z,76.25
2023-04-04T05:20:23.211Z,71.13
2023-04-04T05:22:51.083Z,69.32
2023-04-04T05:25:18.511Z,67.51
2023-04-04T05:27:51.375Z,66.87
2023-04-04T05:30:17.852Z,67.08
2023-04-04T05:32:46.277Z,64.62
2023-04-04T05:35:13.171Z,62.82
2023-04-04T05:37:40.662Z,61.29
2023-04-04T05:40:08.207Z,59.26
2023-04-04T05:42:34.688Z,57.15
2023-04-04T05:45:03.758Z,54.46
2023-04-04T05:47:30.460Z,53.57
2023-04-04T05:49:57.264Z,53.19
2023-04-04T05:52:23.682Z,52.79
2023-04-04T05:54:51.145Z,51.39
2023-04-04T05:57:17.553Z,50.31
2023-04-04T05:59:44.071Z,48.34
2023-04-04T06:02:10.567Z,47.04
2023-04-04T06:04:36.988Z,47.36
2023-04-04T06:07:03.554Z,46.18
2023-04-04T06:09:30.067Z,44.58
2023-04-04T06:11:56.508Z,45.13
2023-04-04T06:14:22.967Z,45.17
2023-04-04T06:16:49.476Z,44.12
2023-04-04T06:19:16.569Z,45.00
2023-04-04T06:21:43.112Z,44.93
2023-04-04T06:24:09.613Z,43.31
2023-04-04T06:26:36.176Z,42.60
2023-04-04T06:29:02.617Z,42.95
2023-04-04T06:31:29.044Z,43.00
2023-04-04T06:33:55.526Z,43.77
2023-04-04T06:36:21.960Z,42.74
2023-04-04T06:38:48.488Z,42.83
2023-04-04T06:41:14.917Z,42.99
2023-04-04T06:43:41.603Z,42.88
2023-04-04T06:46:08.164Z,43.21
2023-04-04T06:48:34.650Z,44.43
2023-04-04T06:51:01.541Z,46.26
2023-04-04T06:53:28.134Z,47.82
2023-04-04T06:55:54.619Z,46.23
2023-04-04T06:58:21.282Z,44.30
2023-04-04T07:00:47.709Z,46.19
2023-04-04T07:03:14.934Z,48.93
2023-04-04T07:05:41.708Z,49.53
2023-04-04T07:08:08.954Z,46.23
2023-04-04T07:10:35.955Z,47.62
2023-04-04T07:13:03.492Z,47.46
2023-04-04T07:15:29.992Z,45.83
2023-04-04T07:17:56.775Z,44.23
2023-04-04T07:20:23.581Z,43.06
2023-04-04T07:22:50.307Z,45.23
2023-04-04T07:25:16.879Z,46.91
2023-04-04T07:27:43.350Z,48.01
2023-04-04T07:30:10.636Z,49.36
2023-04-04T07:32:38.188Z,48.79
2023-04-04T07:35:06.843Z,47.98
2023-04-04T07:37:33.998Z,46.86
2023-04-04T07:40:00.787Z,48.56
2023-04-04T07:42:27.839Z,49.41
2023-04-04T07:44:54.288Z,49.37
2023-04-04T07:47:22.534Z,49.02
2023-04-04T07:49:48.986Z,48.59
2023-04-04T07:52:15.536Z,49.23
2023-04-04T07:54:42.114Z,49.25
2023-04-04T07:57:09.977Z,49.66
2023-04-04T07:59:37.649Z,50.38
2023-04-04T08:02:04.263Z,50.97
2023-04-04T08:04:30.945Z,51.79
2023-04-04T08:06:57.612Z,48.73
2023-04-04T08:09:24.931Z,48.90
2023-04-04T08:11:52.094Z,47.63
2023-04-04T08:14:18.514Z,48.80
2023-04-04T08:16:44.925Z,48.09
2023-04-04T08:19:11.475Z,49.80
2023-04-04T08:21:38.130Z,48.45
2023-04-04T08:24:05.062Z,48.99
2023-04-04T08:26:32.244Z,48.80
2023-04-04T08:28:58.635Z,49.14
2023-04-04T08:31:25.181Z,49.11
2023-04-04T08:33:52.481Z,49.42
2023-04-04T08:36:19.657Z,49.33
2023-04-04T08:38:46.338Z,49.15
2023-04-04T08:41:13.596Z,47.81
2023-04-04T08:43:41.630Z,45.79
2023-04-04T08:46:10.997Z,46.73
2023-04-04T08:48:41.674Z,47.90
2023-04-04T08:51:10.605Z,45.84
2023-04-04T08:53:37.435Z,45.83
2023-04-04T08:56:04.515Z,46.24
2023-04-04T08:58:31.159Z,47.10
2023-04-04T09:00:57.961Z,46.75
2023-04-04T09:03:26.658Z,46.49
2023-04-04T09:05:56.849Z,46.69
2023-04-04T09:08:26.283Z,46.38
2023-04-04T09:10:53.981Z,47.10
2023-04-04T09:13:20.845Z,47.33
2023-04-04T09:15:50.025Z,45.81
2023-04-04T09:18:18.730Z,44.76
2023-04-04T09:20:46.778Z,45.14
2023-04-04T09:23:15.762Z,46.07
2023-04-04T09:26:03.260Z,45.25
2023-04-04T09:28:31.655Z,45.45
2023-04-04T09:31:00.748Z,44.60
2023-04-04T09:33:27.376Z,44.46
2023-04-04T09:36:05.045Z,43.28
2023-04-04T09:38:32.287Z,43.32
2023-04-04T09:40:59.770Z,41.52
2023-04-04T09:43:26.527Z,42.46
2023-04-04T09:45:54.993Z,43.99
2023-04-04T09:48:31.025Z,43.98
2023-04-04T09:50:58.988Z,44.76
2023-04-04T09:53:25.923Z,44.01
2023-04-04T09:55:54.537Z,44.51
2023-04-04T09:58:28.926Z,43.18
2023-04-04T10:00:58.499Z,43.99
2023-04-04T10:03:25.467Z,45.78
2023-04-04T10:06:07.447Z,46.23
2023-04-04T10:08:35.441Z,45.78
2023-04-04T10:11:10.642Z,45.65
2023-04-04T10:13:41.782Z,46.13
2023-04-04T10:16:10.709Z,44.18
2023-04-04T10:18:37.693Z,45.93
2023-04-04T10:23:37.016Z,45.52
2023-04-04T10:26:03.562Z,45.58
2023-04-04T10:28:30.074Z,45.33
2023-04-04T10:31:17.452Z,45.89
2023-04-04T10:34:02.538Z,45.44
2023-04-04T10:36:35.068Z,46.60
2023-04-04T10:39:15.430Z,46.95
2023-04-04T10:41:42.534Z,46.40
2023-04-04T10:44:29.346Z,44.87
2023-04-04T10:46:58.930Z,46.70
2023-04-04T10:49:25.905Z,46.76
2023-04-04T10:51:56.813Z,46.48
2023-04-04T10:54:25.608Z,45.19
2023-04-04T10:56:52.685Z,45.07
2023-04-04T10:59:19.262Z,46.58
2023-04-04T11:01:50.727Z,48.22
2023-04-04T11:04:22.402Z,47.24
2023-04-04T11:07:10.233Z,44.71
2023-04-04T11:09:56.961Z,45.13
2023-04-04T11:12:31.449Z,45.69
2023-04-04T11:15:00.648Z,45.89
2023-04-04T11:17:48.844Z,44.87
2023-04-04T11:20:17.667Z,46.17
2023-04-04T11:22:45.619Z,45.02
2023-04-04T11:25:30.717Z,43.89
2023-04-04T11:27:58.303Z,44.57
2023-04-04T11:30:28.363Z,43.90
2023-04-04T11:33:07.236Z,44.74
2023-04-04T11:35:39.029Z,43.24
2023-04-04T11:38:13.193Z,41.94
2023-04-04T11:40:41.860Z,41.87
2023-04-04T11:43:09.875Z,43.24
2023-04-04T11:45:37.561Z,41.76
2023-04-04T11:48:06.350Z,42.56
2023-04-04T11:50:40.156Z,43.25
2023-04-04T11:53:11.102Z,43.76
2023-04-04T11:55:48.244Z,43.10
2023-04-04T11:58:17.898Z,42.19
2023-04-04T12:00:45.613Z,43.91
2023-04-04T12:03:12.767Z,44.69
2023-04-04T12:05:41.166Z,44.33
2023-04-04T12:08:09.752Z,43.80
2023-04-04T12:10:39.157Z,44.79
2023-04-04T12:13:07.332Z,44.48
2023-04-04T12:15:35.989Z,43.96
2023-04-04T12:18:06.985Z,44.19
2023-04-04T12:20:33.674Z,43.79
2023-04-04T12:23:00.227Z,44.29
2023-04-04T12:25:29.482Z,44.04
2023-04-04T12:27:56.597Z,43.02
2023-04-04T12:30:23.783Z,45.02
2023-04-04T12:32:51.662Z,40.80
2023-04-04T12:35:18.807Z,40.94
2023-04-04T12:38:02.646Z,37.29
2023-04-04T12:40:30.415Z,38.16
2023-04-04T12:42:57.288Z,38.85
2023-04-04T12:45:26.784Z,38.21
2023-04-04T12:47:57.975Z,39.11
2023-04-04T12:50:27.323Z,39.84
2023-04-04T12:55:49.322Z,40.45
2023-04-04T12:58:21.794Z,39.76
2023-04-04T13:00:53.073Z,40.43
2023-04-04T13:03:22.685Z,39.77
2023-04-04T13:05:49.647Z,39.60
2023-04-04T13:08:17.253Z,40.34
2023-04-04T13:11:05.249Z,39.38
2023-04-04T13:13:35.271Z,40.02
2023-04-04T13:16:02.965Z,40.19
2023-04-04T13:18:38.118Z,39.74
2023-04-04T13:21:07.872Z,39.46
2023-04-04T13:23:36.344Z,41.65
2023-04-04T13:26:04.724Z,40.92
2023-04-04T13:28:31.430Z,39.69
2023-04-04T13:30:58.251Z,40.56
2023-04-04T13:33:24.762Z,39.68
2023-04-04T13:35:51.511Z,41.48
2023-04-04T13:38:18.111Z,38.73
2023-04-04T13:40:44.782Z,38.48
2023-04-04T13:43:13.464Z,39.18
2023-04-04T13:45:40.155Z,40.65
2023-04-04T13:48:06.924Z,39.45
2023-04-04T13:50:39.795Z,38.74
2023-04-04T13:53:06.416Z,38.57
2023-04-04T13:55:32.866Z,37.96
2023-04-04T13:57:59.306Z,38.83
2023-04-04T14:00:25.825Z,38.40
2023-04-04T14:02:54.377Z,37.59
2023-04-04T14:05:22.734Z,38.77
2023-04-04T14:07:49.500Z,39.65
2023-04-04T14:10:17.078Z,38.30
2023-04-04T14:12:43.667Z,37.80
2023-04-04T14:15:11.520Z,37.86
2023-04-04T14:17:38.146Z,38.47
2023-04-04T14:20:05.416Z,37.17
2023-04-04T14:22:33.573Z,38.12
2023-04-04T14:25:00.253Z,38.04
2023-04-04T14:27:26.672Z,36.75
2023-04-04T14:29:53.149Z,36.64
2023-04-04T14:32:19.747Z,37.15
2023-04-04T14:34:46.262Z,38.39
2023-04-04T14:37:12.816Z,37.69
2023-04-04T14:39:39.736Z,38.95
2023-04-04T14:42:06.252Z,39.30
2023-04-04T14:44:33.583Z,39.64
2023-04-04T14:47:00.363Z,39.58
2023-04-04T14:49:27.420Z,38.81
2023-04-04T14:51:53.922Z,40.36
2023-04-04T14:54:20.961Z,39.43
2023-04-04T14:56:47.511Z,40.50
2023-04-04T14:59:14.053Z,39.13
2023-04-04T15:01:40.752Z,39.21
2023-04-04T15:04:07.325Z,38.93
2023-04-04T15:06:38.156Z,38.39
2023-04-04T15:09:06.138Z,37.23
2023-04-04T15:11:32.653Z,37.03
2023-04-04T15:13:59.241Z,38.22
2023-04-04T15:16:25.795Z,39.95
2023-04-04T15:18:52.234Z,38.71
2023-04-04T15:21:18.646Z,38.01
2023-04-04T15:23:45.261Z,38.12
2023-04-04T15:26:11.741Z,38.89
2023-04-04T15:28:38.249Z,38.66
2023-04-04T15:31:04.842Z,38.98
2023-04-04T15:33:31.326Z,40.74
2023-04-04T15:35:58.912Z,39.00
2023-04-04T15:38:25.500Z,38.98
2023-04-04T15:40:52.033Z,38.42
2023-04-04T15:43:18.444Z,38.26
2023-04-04T15:45:46.623Z,38.50
2023-04-04T15:48:13.220Z,39.37
2023-04-04T15:50:40.057Z,39.36
2023-04-04T15:53:07.070Z,40.90
2023-04-04T15:55:33.592Z,40.45
2023-04-04T15:58:00.149Z,39.11
2023-04-04T16:00:29.687Z,40.97
2023-04-04T16:02:59.296Z,40.70
2023-04-04T16:05:27.200Z,40.89
2023-04-04T16:07:54.006Z,40.65
2023-04-04T16:10:20.675Z,39.72
2023-04-04T16:12:47.174Z,42.31
2023-04-04T16:15:13.671Z,40.20
2023-04-04T16:17:40.258Z,40.70
2023-04-04T16:20:07.435Z,41.85
2023-04-04T16:22:33.929Z,39.85
2023-04-04T16:25:00.510Z,41.28
2023-04-04T16:27:27.804Z,41.10
2023-04-04T16:29:54.219Z,39.49
2023-04-04T16:32:20.716Z,42.09
2023-04-04T16:34:47.140Z,40.98
2023-04-04T16:37:18.001Z,40.90
2023-04-04T16:39:46.622Z,42.53
2023-04-04T16:42:13.274Z,43.24
2023-04-04T16:44:39.823Z,42.61
2023-04-04T16:47:06.424Z,42.26
2023-04-04T16:49:32.968Z,41.88
2023-04-04T16:51:59.389Z,42.69
2023-04-04T16:54:26.113Z,43.98
2023-04-04T16:56:52.601Z,41.64
2023-04-04T16:59:19.580Z,44.62
2023-04-04T17:01:49.201Z,43.52
2023-04-04T17:04:16.146Z,42.71
2023-04-04T17:06:42.894Z,43.25
2023-04-04T17:09:09.375Z,43.34
2023-04-04T17:11:35.937Z,44.50
2023-04-04T17:14:02.754Z,45.77
2023-04-04T17:16:29.227Z,46.10
2023-04-04T17:18:55.697Z,45.56
2023-04-04T17:21:22.676Z,46.14
2023-04-04T17:23:49.185Z,45.75
2023-04-04T17:26:15.674Z,46.13
2023-04-04T17:28:42.676Z,46.04
2023-04-04T17:31:09.138Z,47.47
2023-04-04T17:33:35.663Z,47.66
2023-04-04T17:36:02.854Z,49.31
2023-04-04T17:38:30.849Z,50.80
2023-04-04T17:41:00.589Z,50.79
2023-04-04T17:43:27.464Z,51.34
2023-04-04T17:45:53.916Z,52.27
2023-04-04T17:48:20.556Z,52.62
2023-04-04T17:50:47.752Z,51.91
2023-04-04T17:53:14.250Z,51.99
2023-04-04T17:55:40.868Z,51.60
2023-04-04T17:58:07.468Z,51.38
2023-04-04T18:00:34.870Z,52.03
2023-04-04T18:03:02.622Z,52.21
2023-04-04T18:05:29.482Z,50.99
2023-04-04T18:07:56.737Z,51.63
2023-04-04T18:10:23.157Z,50.67
2023-04-04T18:12:49.761Z,51.87
2023-04-04T18:15:17.476Z,51.49
2023-04-04T18:17:43.944Z,51.47
2023-04-04T18:20:16.356Z,51.20
2023-04-04T18:22:48.340Z,52.27
2023-04-04T18:25:17.755Z,52.59
2023-04-04T18:27:44.392Z,52.42
2023-04-04T18:30:11.452Z,52.87
2023-04-04T18:32:38.025Z,53.71
2023-04-04T18:35:04.907Z,54.29
2023-04-04T18:37:31.809Z,54.22
2023-04-04T18:39:58.253Z,53.59
2023-04-04T18:42:26.055Z,53.68
2023-04-04T18:44:53.650Z,53.12
2023-04-04T18:47:21.381Z,54.25
2023-04-04T18:49:48.037Z,54.07
2023-04-04T18:52:14.536Z,54.73
2023-04-04T18:54:41.174Z,54.48
2023-04-04T18:57:07.635Z,54.77
2023-04-04T18:59:34.294Z,53.61
2023-04-04T19:02:01.250Z,54.28
2023-04-04T19:04:29.244Z,53.97
2023-04-04T19:06:55.852Z,55.26
2023-04-04T19:09:22.323Z,55.20
2023-04-04T19:11:53.161Z,53.69
2023-04-04T19:14:19.709Z,54.43
2023-04-04T19:16:48.154Z,54.01
2023-04-04T19:19:15.681Z,53.35
2023-04-04T19:21:42.933Z,53.38
2023-04-04T19:24:09.353Z,53.72
2023-04-04T19:26:35.865Z,53.79
2023-04-04T19:29:02.781Z,53.76
2023-04-04T19:31:32.853Z,53.67
2023-04-04T19:34:01.864Z,53.28
2023-04-04T19:36:28.430Z,53.01
2023-04-04T19:38:54.969Z,53.39
2023-04-04T19:41:37.673Z,52.46
2023-04-04T19:44:06.533Z,52.33
2023-04-04T19:46:33.934Z,52.68
2023-04-04T19:49:05.090Z,52.66
2023-04-04T19:51:53.592Z,52.92
2023-04-04T19:54:32.549Z,51.38
2023-04-04T19:57:06.840Z,51.46
2023-04-04T19:59:45.612Z,52.60
2023-04-04T20:02:32.016Z,53.67
2023-04-04T20:04:58.909Z,52.72
2023-04-04T20:07:25.493Z,52.84
2023-04-04T20:09:55.627Z,52.72
2023-04-04T20:12:26.419Z,52.57
2023-04-04T20:14:58.884Z,52.24
2023-04-04T20:17:25.653Z,52.30
2023-04-04T20:19:52.370Z,51.92
2023-04-04T20:22:19.065Z,52.35
2023-04-04T20:24:47.460Z,51.35
2023-04-04T20:27:23.599Z,52.56
2023-04-04T20:29:56.024Z,52.22
2023-04-04T20:32:22.531Z,53.19
2023-04-04T20:34:50.523Z,53.21
2023-04-04T20:37:26.102Z,53.90
2023-04-04T20:39:54.616Z,53.67
2023-04-04T20:42:30.547Z,53.32
2023-04-04T20:45:12.823Z,52.84
2023-04-04T20:47:51.162Z,52.13
2023-04-04T20:50:17.780Z,54.12
2023-04-04T20:52:47.014Z,54.98
2023-04-04T20:55:13.552Z,52.31
2023-04-04T20:57:40.065Z,53.92
2023-04-04T21:00:29.757Z,56.16
2023-04-04T21:02:58.065Z,55.81
2023-04-04T21:05:34.424Z,56.77
2023-04-04T21:08:02.742Z,54.38
2023-04-04T21:10:29.141Z,57.00
2023-04-04T21:13:00.935Z,55.29
2023-04-04T21:15:30.975Z,57.38
2023-04-04T21:18:02.532Z,58.20
2023-04-04T21:20:47.321Z,59.12
2023-04-04T21:23:29.025Z,58.88
2023-04-04T21:25:58.475Z,58.10
2023-04-04T21:28:43.855Z,57.62
2023-04-04T21:31:18.493Z,58.41
2023-04-04T21:33:53.807Z,57.96
2023-04-04T21:36:27.231Z,57.30
2023-04-04T21:39:15.041Z,56.76
2023-04-04T21:41:43.941Z,58.81
2023-04-04T21:44:11.050Z,58.03
2023-04-04T21:46:40.003Z,58.45
2023-04-04T21:49:08.165Z,58.88
2023-04-04T21:51:34.649Z,59.39
2023-04-04T21:54:01.676Z,60.51
2023-04-04T21:56:31.541Z,60.20
2023-04-04T21:58:59.353Z,60.43
2023-04-04T22:01:26.486Z,61.10
2023-04-04T22:03:53.349Z,62.33
2023-04-04T22:06:25.318Z,61.70
2023-04-04T22:08:52.083Z,61.45
2023-04-04T22:11:21.541Z,62.31
2023-04-04T22:13:51.540Z,63.02
2023-04-04T22:16:19.698Z,63.76
2023-04-04T22:18:51.925Z,63.91
2023-04-04T22:21:25.876Z,63.61
2023-04-04T22:23:53.870Z,63.10
2023-04-04T22:26:28.872Z,63.29
2023-04-04T22:28:56.847Z,62.34
2023-04-04T22:31:23.844Z,63.30
2023-04-04T22:33:50.537Z,64.74
2023-04-04T22:36:17.547Z,63.85
2023-04-04T22:38:44.201Z,64.58
2023-04-04T22:41:10.751Z,65.58
2023-04-04T22:43:38.151Z,66.18
2023-04-04T22:46:04.736Z,65.98
2023-04-04T22:48:31.200Z,65.83
2023-04-04T22:50:58.789Z,66.77
2023-04-04T22:53:25.976Z,67.56
2023-04-04T22:55:53.432Z,68.75
2023-04-04T22:58:21.448Z,69.70
2023-04-04T23:00:48.323Z,67.91
2023-04-04T23:03:14.767Z,68.56
2023-04-04T23:05:41.764Z,69.60
2023-04-04T23:08:09.357Z,71.00
2023-04-04T23:10:36.658Z,69.89
2023-04-04T23:13:03.279Z,69.81
2023-04-04T23:15:29.750Z,70.23
2023-04-04T23:17:56.322Z,70.53
2023-04-04T23:20:24.117Z,70.93
2023-04-04T23:22:51.676Z,72.22
2023-04-04T23:25:18.213Z,69.87
2023-04-04T23:27:44.686Z,71.11
2023-04-04T23:30:11.747Z,70.05
2023-04-04T23:32:38.475Z,70.83
2023-04-04T23:35:05.309Z,72.43
2023-04-04T23:37:31.925Z,73.11
2023-04-04T23:39:58.356Z,71.14
2023-04-04T23:42:24.817Z,71.35
2023-04-04T23:44:51.641Z,75.00
2023-04-04T23:47:18.702Z,74.73
2023-04-04T23:49:45.196Z,74.95
2023-04-04T23:52:11.702Z,76.38
2023-04-04T23:54:38.223Z,76.81
2023-04-04T23:57:04.676Z,75.30
2023-04-04T23:59:31.308Z,73.08
